Time;durP1;ratioP1;P1;durP2;ratioP2;P2;SDS_P1;SDS_P2;PMS_P1;PMS_P2;Temp;Humidity;BMP_temperature;BMP_pressure;BME280_temperature;BME280_humidity;BME280_pressure;Samples;Min_cycle;Max_cycle;Signal;HPM_P1;HPM_P2
2021/12/27 00:00:16;;;;;;;388.67;47.55;;;4.00;99.90;;;;;;4942904;28;20438;-84
2021/12/27 00:02:47;;;;;;;289.02;38.95;;;4.00;99.90;;;;;;4975985;28;20041;-83
2021/12/27 00:05:13;;;;;;;362.83;43.92;;;4.00;99.90;;;;;;4958647;28;20034;-84
2021/12/27 00:07:38;;;;;;;311.00;40.17;;;4.00;99.90;;;;;;4942862;28;20025;-84
2021/12/27 00:10:05;;;;;;;374.05;42.05;;;4.00;99.90;;;;;;4958821;28;20405;-84
2021/12/27 00:12:31;;;;;;;162.20;34.60;;;4.00;99.90;;;;;;4942530;28;20031;-84
2021/12/27 00:14:57;;;;;;;293.52;40.97;;;4.10;99.90;;;;;;4942450;28;20147;-83
2021/12/27 00:17:23;;;;;;;202.45;37.00;;;4.10;99.90;;;;;;4958469;28;20494;-84
2021/12/27 00:19:49;;;;;;;195.60;34.28;;;4.10;99.90;;;;;;4958556;28;20030;-84
2021/12/27 00:22:33;;;;;;;209.45;39.25;;;4.10;99.90;;;;;;4958688;28;20034;-84
2021/12/27 00:24:59;;;;;;;396.98;46.90;;;4.20;99.90;;;;;;4976166;28;20026;-83
2021/12/27 00:27:25;;;;;;;432.55;49.45;;;4.10;99.90;;;;;;4958595;28;20471;-84
2021/12/27 00:29:52;;;;;;;397.45;46.03;;;4.10;99.90;;;;;;4942316;28;20094;-83
2021/12/27 00:32:19;;;;;;;243.52;37.75;;;4.10;99.90;;;;;;4958459;28;20415;-84
2021/12/27 00:34:44;;;;;;;317.55;49.05;;;4.20;99.90;;;;;;4942335;28;20034;-84
2021/12/27 00:37:10;;;;;;;259.30;37.85;;;4.20;99.90;;;;;;4975218;28;20033;-82
2021/12/27 00:39:36;;;;;;;185.18;30.98;;;4.20;99.90;;;;;;4975435;28;20056;-81
2021/12/27 00:42:03;;;;;;;315.75;44.22;;;4.20;99.90;;;;;;4974886;28;20038;-83
2021/12/27 00:44:29;;;;;;;184.50;34.08;;;4.20;99.90;;;;;;4958146;28;20038;-84
2021/12/27 00:46:55;;;;;;;188.38;39.00;;;4.20;99.90;;;;;;4941996;28;20042;-83
2021/12/27 00:49:21;;;;;;;245.70;37.78;;;4.20;99.90;;;;;;4957719;28;20078;-84
2021/12/27 00:51:47;;;;;;;76.57;22.45;;;4.20;99.90;;;;;;4941697;28;20067;-83
2021/12/27 00:54:13;;;;;;;150.07;22.80;;;4.20;99.90;;;;;;4957434;28;20041;-83
2021/12/27 00:56:39;;;;;;;63.72;17.90;;;4.20;99.90;;;;;;4973635;28;20400;-84
2021/12/27 00:59:05;;;;;;;70.93;20.23;;;4.20;99.90;;;;;;4973920;28;20053;-84
2021/12/27 01:01:31;;;;;;;107.40;21.23;;;4.10;99.90;;;;;;4974513;28;20479;-84
2021/12/27 01:03:59;;;;;;;106.75;20.25;;;4.10;99.90;;;;;;4974749;28;20035;-84
2021/12/27 01:06:25;;;;;;;96.00;17.80;;;4.10;99.90;;;;;;4957248;28;20522;-83
2021/12/27 01:08:50;;;;;;;103.03;20.40;;;4.10;99.90;;;;;;4973230;28;20402;-84
2021/12/27 01:16:27;;;;;;;113.75;21.10;;;4.10;99.90;;;;;;4974071;28;20039;-84
2021/12/27 01:18:54;;;;;;;190.40;22.35;;;4.10;99.90;;;;;;4972803;28;20485;-83
2021/12/27 01:21:21;;;;;;;243.70;25.40;;;4.10;99.90;;;;;;4941157;28;20089;-84
2021/12/27 01:23:49;;;;;;;168.32;20.00;;;4.10;99.90;;;;;;4972991;28;20038;-84
2021/12/27 01:26:15;;;;;;;132.70;17.92;;;4.20;99.90;;;;;;4940816;28;20080;-84
2021/12/27 01:28:41;;;;;;;104.95;17.15;;;4.20;99.90;;;;;;4972979;28;20561;-84
2021/12/27 01:31:07;;;;;;;171.05;23.35;;;4.20;99.90;;;;;;4974546;28;20034;-84
2021/12/27 01:33:33;;;;;;;219.20;22.33;;;4.20;99.90;;;;;;4957158;28;20055;-84
2021/12/27 01:36:01;;;;;;;139.80;18.48;;;4.30;99.90;;;;;;4957444;28;20027;-82
2021/12/27 01:38:27;;;;;;;359.60;26.95;;;4.30;99.90;;;;;;4941440;28;20449;-82
2021/12/27 01:40:55;;;;;;;323.15;26.65;;;4.30;99.90;;;;;;4973083;28;20141;-82
2021/12/27 01:43:24;;;;;;;223.73;22.88;;;4.40;99.90;;;;;;4974342;28;20085;-82
2021/12/27 01:46:03;;;;;;;217.68;21.40;;;4.50;99.90;;;;;;4957260;28;20049;-82
2021/12/27 01:48:33;;;;;;;453.42;30.80;;;4.40;99.90;;;;;;4957252;28;20023;-84
2021/12/27 01:51:00;;;;;;;165.93;19.85;;;4.40;99.90;;;;;;4974469;28;20026;-84
2021/12/27 01:53:29;;;;;;;232.48;21.33;;;4.40;99.90;;;;;;4956307;28;20023;-84
2021/12/27 01:55:56;;;;;;;100.13;15.65;;;4.40;99.90;;;;;;4940990;28;20088;-85
2021/12/27 01:58:23;;;;;;;425.73;31.58;;;4.50;99.90;;;;;;4974592;28;20030;-85
2021/12/27 02:00:52;;;;;;;437.25;28.67;;;4.50;99.90;;;;;;4957295;28;20391;-85
2021/12/27 02:03:20;;;;;;;605.03;35.03;;;4.50;99.90;;;;;;4974669;28;20046;-84
2021/12/27 02:05:46;;;;;;;306.63;23.48;;;4.40;99.90;;;;;;4941070;28;20390;-84
2021/12/27 02:08:12;;;;;;;154.80;18.05;;;4.50;99.90;;;;;;4940950;28;20505;-85
2021/12/27 02:10:39;;;;;;;622.45;36.22;;;4.40;99.90;;;;;;4940985;28;20110;-85
2021/12/27 02:13:05;;;;;;;41.30;11.88;;;4.40;99.90;;;;;;4974137;28;20027;-84
2021/12/27 02:15:31;;;;;;;479.23;29.55;;;4.40;99.90;;;;;;4974025;28;20125;-84
2021/12/27 02:17:57;;;;;;;69.70;13.60;;;4.40;99.90;;;;;;4972700;28;20059;-84
2021/12/27 02:20:29;;;;;;;505.38;32.42;;;4.40;99.90;;;;;;4941132;28;20045;-85
2021/12/27 02:23:00;;;;;;;414.05;27.17;;;4.40;99.90;;;;;;4973997;28;20045;-84
2021/12/27 02:25:27;;;;;;;330.60;22.00;;;4.40;99.90;;;;;;4941119;28;20494;-84
2021/12/27 02:27:53;;;;;;;80.30;14.40;;;4.40;99.90;;;;;;4956711;28;20035;-83
2021/12/27 02:30:21;;;;;;;42.10;12.73;;;4.40;99.90;;;;;;4956813;28;20471;-83
2021/12/27 02:32:57;;;;;;;60.83;12.05;;;4.40;99.90;;;;;;4940714;28;20031;-83
2021/12/27 02:35:26;;;;;;;28.52;11.65;;;4.40;99.90;;;;;;4956851;28;20497;-83
2021/12/27 02:37:54;;;;;;;25.33;10.50;;;4.40;99.90;;;;;;4957077;28;20041;-82
2021/12/27 02:40:22;;;;;;;28.05;10.50;;;4.40;99.90;;;;;;4956872;28;20455;-82
2021/12/27 02:42:57;;;;;;;327.73;23.25;;;4.40;99.90;;;;;;4956648;28;20027;-83
2021/12/27 02:45:23;;;;;;;149.07;15.88;;;4.40;99.90;;;;;;4956775;28;20035;-82
2021/12/27 02:47:50;;;;;;;236.68;22.67;;;4.40;99.90;;;;;;4940727;28;20054;-82
2021/12/27 02:50:16;;;;;;;44.67;13.70;;;4.40;99.90;;;;;;4956539;28;20035;-82
2021/12/27 02:52:42;;;;;;;101.43;14.50;;;4.40;99.90;;;;;;4972783;28;20454;-82
2021/12/27 02:55:12;;;;;;;39.53;13.65;;;4.50;99.90;;;;;;4973692;28;20038;-82
2021/12/27 02:57:38;;;;;;;65.40;14.88;;;4.40;99.90;;;;;;4940692;28;20088;-82
2021/12/27 03:00:05;;;;;;;84.20;14.55;;;4.40;99.90;;;;;;4940696;28;20046;-83
2021/12/27 03:02:35;;;;;;;45.50;13.32;;;4.40;99.90;;;;;;4956577;28;20034;-82
2021/12/27 03:05:03;;;;;;;151.60;16.58;;;4.50;99.90;;;;;;4942356;28;20551;-85
2021/12/27 03:07:28;;;;;;;210.88;21.40;;;4.60;99.90;;;;;;4943914;28;20050;-83
2021/12/27 03:09:58;;;;;;;124.95;22.27;;;4.50;99.90;;;;;;4959681;28;20415;-84
2021/12/27 03:12:23;;;;;;;112.03;21.40;;;4.50;99.90;;;;;;4977159;28;20035;-83
2021/12/27 03:14:49;;;;;;;437.23;30.50;;;4.60;99.90;;;;;;4959698;28;20046;-83
2021/12/27 03:17:15;;;;;;;184.10;22.15;;;4.60;99.90;;;;;;4959792;28;20030;-83
2021/12/27 03:19:40;;;;;;;144.40;17.83;;;4.60;99.90;;;;;;4943386;28;20061;-84
2021/12/27 03:22:06;;;;;;;410.92;31.48;;;4.60;99.90;;;;;;4959902;28;20031;-83
2021/12/27 03:24:32;;;;;;;405.40;32.35;;;4.70;99.90;;;;;;4976891;28;20114;-84
2021/12/27 03:26:57;;;;;;;505.63;38.05;;;4.60;99.90;;;;;;4975694;28;20034;-84
2021/12/27 03:29:23;;;;;;;435.20;38.28;;;4.70;99.90;;;;;;4975868;28;20055;-83
2021/12/27 03:31:50;;;;;;;429.30;35.05;;;4.70;99.90;;;;;;4959785;28;20027;-84
2021/12/27 03:34:15;;;;;;;320.40;30.33;;;4.70;99.90;;;;;;4959611;28;20023;-83
2021/12/27 03:36:50;;;;;;;309.13;29.65;;;4.70;99.90;;;;;;4975632;28;20430;-83
2021/12/27 03:39:16;;;;;;;225.35;27.65;;;4.80;99.90;;;;;;4959442;28;20418;-83
2021/12/27 03:41:42;;;;;;;661.63;52.00;;;4.80;99.90;;;;;;4959660;28;20038;-83
2021/12/27 03:44:07;;;;;;;177.60;30.67;;;4.80;99.90;;;;;;4943388;28;20034;-84
2021/12/27 03:46:33;;;;;;;395.98;34.53;;;4.80;99.90;;;;;;4943534;28;20058;-83
2021/12/27 03:48:59;;;;;;;122.43;20.95;;;4.80;99.90;;;;;;4943344;28;20467;-84
2021/12/27 03:51:25;;;;;;;305.65;27.73;;;4.80;99.90;;;;;;4959364;28;20023;-83
2021/12/27 03:53:52;;;;;;;315.13;25.58;;;4.80;99.90;;;;;;4943302;28;20031;-84
2021/12/27 03:56:22;;;;;;;358.52;28.48;;;4.80;99.90;;;;;;4943387;28;20505;-83
2021/12/27 03:58:56;;;;;;;260.13;24.67;;;4.80;99.90;;;;;;4975370;28;20073;-84
2021/12/27 04:01:24;;;;;;;229.95;25.52;;;4.80;99.90;;;;;;4975137;28;20034;-83
2021/12/27 04:03:52;;;;;;;311.73;28.63;;;4.80;99.90;;;;;;4959180;28;20035;-84
2021/12/27 04:06:20;;;;;;;181.43;20.08;;;4.80;99.90;;;;;;4942910;28;20038;-84
2021/12/27 04:08:46;;;;;;;218.00;24.15;;;4.80;99.90;;;;;;4958947;28;20023;-83
2021/12/27 04:11:13;;;;;;;309.70;28.30;;;4.80;99.90;;;;;;4959108;28;20390;-83
2021/12/27 04:13:39;;;;;;;292.92;30.13;;;4.90;99.90;;;;;;4975084;28;20035;-84
2021/12/27 04:16:05;;;;;;;276.38;25.63;;;4.80;99.90;;;;;;4974077;28;20502;-84
2021/12/27 04:18:31;;;;;;;499.15;34.17;;;4.80;99.90;;;;;;4942841;28;20093;-84
2021/12/27 04:20:56;;;;;;;224.52;29.02;;;4.80;99.90;;;;;;4976209;28;20394;-83
2021/12/27 04:23:25;;;;;;;177.70;26.23;;;4.80;99.90;;;;;;4942824;28;20046;-83
2021/12/27 04:25:51;;;;;;;203.32;28.63;;;4.80;99.90;;;;;;4942602;28;20023;-83
2021/12/27 04:28:19;;;;;;;324.55;31.77;;;4.90;99.90;;;;;;4942719;28;20392;-84
2021/12/27 04:30:45;;;;;;;274.80;34.00;;;4.90;99.90;;;;;;4974478;28;20027;-83
2021/12/27 04:33:11;;;;;;;267.05;40.47;;;4.90;99.90;;;;;;4958610;28;20067;-84
2021/12/27 04:35:56;;;;;;;208.18;35.45;;;5.00;99.90;;;;;;4958427;28;20058;-84
2021/12/27 04:38:21;;;;;;;299.58;33.42;;;4.90;99.90;;;;;;4974439;28;20036;-84
2021/12/27 04:40:50;;;;;;;360.02;35.60;;;4.90;99.90;;;;;;4958490;28;20034;-84
2021/12/27 04:43:19;;;;;;;287.35;30.65;;;4.90;99.90;;;;;;4958231;28;20070;-84
2021/12/27 04:45:49;;;;;;;457.27;40.63;;;4.90;99.90;;;;;;4958244;28;20122;-84
2021/12/27 04:48:16;;;;;;;298.92;29.33;;;5.00;99.90;;;;;;4974777;28;20113;-84
2021/12/27 04:50:42;;;;;;;483.10;39.08;;;5.00;99.90;;;;;;4942017;28;20031;-84
2021/12/27 04:53:08;;;;;;;258.55;26.10;;;4.90;99.90;;;;;;4974374;28;20066;-84
2021/12/27 04:55:34;;;;;;;592.03;41.67;;;4.90;99.90;;;;;;4958100;28;20485;-83
2021/12/27 04:58:01;;;;;;;495.15;36.67;;;4.90;99.90;;;;;;4942152;28;20066;-83
2021/12/27 05:00:27;;;;;;;440.75;34.28;;;4.80;99.90;;;;;;4975315;28;20035;-83
2021/12/27 05:02:53;;;;;;;367.02;32.55;;;4.80;99.90;;;;;;4957874;28;20069;-83
2021/12/27 05:05:34;;;;;;;328.60;36.47;;;4.80;99.90;;;;;;4974013;28;20062;-84
2021/12/27 05:08:01;;;;;;;359.88;43.17;;;4.80;99.90;;;;;;4941796;28;20039;-83
2021/12/27 05:10:28;;;;;;;403.67;38.15;;;4.80;99.90;;;;;;4975324;28;20038;-83
2021/12/27 05:12:54;;;;;;;593.13;49.85;;;4.80;99.90;;;;;;4957956;28;20035;-83
2021/12/27 05:15:21;;;;;;;508.02;47.25;;;4.80;99.90;;;;;;4942063;28;20035;-84
2021/12/27 05:17:53;;;;;;;537.03;53.50;;;4.80;99.90;;;;;;4974901;28;20386;-84
2021/12/27 05:20:19;;;;;;;433.30;42.85;;;4.90;99.90;;;;;;4973681;28;20027;-83
2021/12/27 05:22:44;;;;;;;363.45;38.33;;;4.90;99.90;;;;;;4941654;28;20121;-83
2021/12/27 05:25:11;;;;;;;485.60;43.00;;;4.90;99.90;;;;;;4973968;28;20035;-83
2021/12/27 05:27:41;;;;;;;514.80;49.83;;;4.80;99.90;;;;;;4941616;28;20035;-82
2021/12/27 05:30:08;;;;;;;401.17;40.70;;;4.80;99.90;;;;;;4957588;28;20027;-83
2021/12/27 05:32:35;;;;;;;522.67;46.05;;;4.70;99.90;;;;;;4957536;28;20018;-83
2021/12/27 05:35:02;;;;;;;556.67;49.20;;;4.70;99.90;;;;;;4941596;28;20506;-83
2021/12/27 05:37:28;;;;;;;507.77;42.35;;;4.70;99.90;;;;;;4973651;28;20042;-83
2021/12/27 05:39:54;;;;;;;585.40;48.85;;;4.70;99.90;;;;;;4941345;28;20414;-83
2021/12/27 05:42:35;;;;;;;596.00;48.20;;;4.60;99.90;;;;;;4974654;28;20038;-83
2021/12/27 05:45:03;;;;;;;497.98;44.88;;;4.70;99.90;;;;;;4956986;28;20031;-83
2021/12/27 05:47:28;;;;;;;583.28;46.88;;;4.70;99.90;;;;;;4956958;28;20049;-83
2021/12/27 05:49:54;;;;;;;386.92;41.67;;;4.70;99.90;;;;;;4974409;28;20023;-83
2021/12/27 05:52:20;;;;;;;442.50;45.58;;;4.80;99.90;;;;;;4974476;28;20451;-83
2021/12/27 05:54:46;;;;;;;442.52;43.83;;;4.70;99.90;;;;;;4957096;28;20031;-83
2021/12/27 05:57:11;;;;;;;445.63;45.42;;;4.70;99.90;;;;;;4956957;28;20034;-83
2021/12/27 05:59:37;;;;;;;476.90;49.53;;;4.70;99.90;;;;;;4974180;28;20090;-83
2021/12/27 06:02:03;;;;;;;652.08;56.90;;;4.70;99.90;;;;;;4974389;28;20390;-83
2021/12/27 06:04:41;;;;;;;600.05;58.40;;;4.70;99.90;;;;;;4957004;28;20034;-84
2021/12/27 06:07:07;;;;;;;550.80;56.92;;;4.70;99.90;;;;;;4957180;28;20027;-83
2021/12/27 06:09:32;;;;;;;528.95;49.22;;;4.70;99.90;;;;;;4957191;28;20033;-83
2021/12/27 06:11:58;;;;;;;610.25;55.58;;;4.70;99.90;;;;;;4941086;28;20085;-83
2021/12/27 06:14:24;;;;;;;449.98;46.65;;;4.70;99.90;;;;;;4974191;28;20673;-83
2021/12/27 06:16:49;;;;;;;526.22;53.85;;;4.70;99.90;;;;;;4941135;28;20035;-83
2021/12/27 06:19:17;;;;;;;603.83;59.05;;;4.70;99.90;;;;;;4974282;28;20507;-83
2021/12/27 06:21:43;;;;;;;601.45;59.72;;;4.70;99.90;;;;;;4974279;28;20070;-83
2021/12/27 06:24:08;;;;;;;598.88;58.15;;;4.70;99.90;;;;;;4941124;28;20079;-84
2021/12/27 06:26:34;;;;;;;709.60;65.55;;;4.70;99.90;;;;;;4973822;28;20522;-83
2021/12/27 06:29:00;;;;;;;688.20;71.07;;;4.70;99.90;;;;;;4956906;28;20031;-83
2021/12/27 06:31:26;;;;;;;563.13;64.88;;;4.60;99.90;;;;;;4972818;28;20027;-83
2021/12/27 06:33:51;;;;;;;536.95;54.05;;;4.70;99.90;;;;;;4974009;28;20063;-83
2021/12/27 06:36:17;;;;;;;372.35;51.25;;;4.70;99.90;;;;;;4974242;28;20031;-83
2021/12/27 06:38:43;;;;;;;322.50;43.80;;;4.70;99.90;;;;;;4956815;28;20031;-84
2021/12/27 06:41:09;;;;;;;232.80;38.28;;;4.60;99.90;;;;;;4960563;28;20042;-83
2021/12/27 06:43:35;;;;;;;348.67;42.38;;;4.70;99.90;;;;;;4960209;28;20039;-83
2021/12/27 06:46:01;;;;;;;392.25;43.38;;;4.70;99.90;;;;;;4944085;28;20504;-83
2021/12/27 06:48:28;;;;;;;431.85;42.53;;;4.70;99.90;;;;;;4960252;28;20031;-83
2021/12/27 06:50:54;;;;;;;606.67;51.28;;;4.70;99.90;;;;;;4976372;28;20031;-83
2021/12/27 06:53:20;;;;;;;610.38;51.58;;;4.70;99.90;;;;;;4977529;28;20138;-83
2021/12/27 06:56:30;;;;;;;810.72;62.85;;;4.70;99.90;;;;;;4960419;28;20510;-83
2021/12/27 06:58:56;;;;;;;764.53;57.88;;;4.70;99.90;;;;;;4976192;28;20038;-83
2021/12/27 07:01:22;;;;;;;725.35;60.50;;;4.70;99.90;;;;;;4960023;28;20114;-83
2021/12/27 07:03:48;;;;;;;645.85;55.88;;;4.70;99.90;;;;;;4976002;28;20130;-83
2021/12/27 07:06:14;;;;;;;751.55;62.03;;;4.70;99.90;;;;;;4943543;28;20031;-83
2021/12/27 07:08:39;;;;;;;630.70;56.28;;;4.70;99.90;;;;;;4975743;28;20031;-84
2021/12/27 07:11:06;;;;;;;735.00;59.65;;;4.70;99.90;;;;;;4976447;28;20072;-84
2021/12/27 07:13:32;;;;;;;976.72;70.90;;;4.70;99.90;;;;;;4959414;28;20502;-83
2021/12/27 07:15:57;;;;;;;841.40;75.43;;;4.70;99.90;;;;;;4959425;28;20057;-83
2021/12/27 07:18:23;;;;;;;989.15;101.43;;;4.70;99.90;;;;;;4976714;28;20093;-84
2021/12/27 07:20:53;;;;;;;613.50;80.30;;;4.70;99.90;;;;;;4975720;28;20041;-82
2021/12/27 07:23:20;;;;;;;642.75;87.32;;;4.70;99.90;;;;;;4959165;28;20062;-83
2021/12/27 07:25:46;;;;;;;882.15;83.15;;;4.70;99.90;;;;;;4943419;28;20035;-83
2021/12/27 07:28:12;;;;;;;718.15;65.57;;;4.70;99.90;;;;;;4943281;28;20042;-82
2021/12/27 07:30:38;;;;;;;753.75;65.35;;;4.70;99.90;;;;;;4975483;28;20089;-83
2021/12/27 07:33:03;;;;;;;652.55;57.15;;;4.70;99.90;;;;;;4959535;28;20035;-83
2021/12/27 07:35:29;;;;;;;510.15;48.38;;;4.70;99.90;;;;;;4976685;28;20038;-83
2021/12/27 07:37:55;;;;;;;545.22;54.88;;;4.80;99.90;;;;;;4959450;28;20514;-83
2021/12/27 07:40:21;;;;;;;565.95;55.42;;;4.80;99.90;;;;;;4959431;28;20179;-82
2021/12/27 07:42:46;;;;;;;588.65;55.45;;;4.80;99.90;;;;;;4943182;28;20030;-83
2021/12/27 07:45:13;;;;;;;568.50;58.95;;;4.80;99.90;;;;;;4959293;28;20034;-83
2021/12/27 07:47:39;;;;;;;415.60;56.65;;;4.80;99.90;;;;;;4959598;28;20438;-84
2021/12/27 07:50:06;;;;;;;857.90;76.18;;;4.90;99.90;;;;;;4958814;28;20046;-84
2021/12/27 07:52:32;;;;;;;658.92;74.78;;;4.80;99.90;;;;;;4942234;28;20085;-84
2021/12/27 07:54:58;;;;;;;541.47;65.30;;;4.80;99.90;;;;;;4976294;28;20513;-85
2021/12/27 07:57:24;;;;;;;468.33;59.88;;;4.90;99.90;;;;;;4958968;28;20395;-84
2021/12/27 07:59:50;;;;;;;528.65;72.05;;;4.90;99.90;;;;;;4974759;28;20387;-84
2021/12/27 08:02:16;;;;;;;649.85;70.30;;;4.90;99.90;;;;;;4958733;28;20077;-84
2021/12/27 08:04:43;;;;;;;451.35;58.17;;;4.90;99.90;;;;;;4958700;28;20046;-84
2021/12/27 08:07:08;;;;;;;405.85;50.67;;;4.90;99.90;;;;;;4974384;28;20066;-84
2021/12/27 08:09:34;;;;;;;490.55;56.95;;;4.90;99.90;;;;;;4958862;28;20517;-84
2021/12/27 08:12:00;;;;;;;381.60;55.70;;;4.90;99.90;;;;;;4957996;28;20467;-84
2021/12/27 08:14:26;;;;;;;559.25;71.90;;;5.00;99.90;;;;;;4942339;28;20037;-84
2021/12/27 08:16:51;;;;;;;298.45;68.00;;;5.00;99.90;;;;;;4974804;28;20037;-84
2021/12/27 08:19:17;;;;;;;302.10;78.68;;;5.00;99.90;;;;;;4958606;28;20033;-84
2021/12/27 08:21:43;;;;;;;233.02;73.22;;;5.00;99.90;;;;;;4974739;28;20049;-83
2021/12/27 08:24:10;;;;;;;377.05;97.57;;;5.00;99.90;;;;;;4942211;28;20038;-84
2021/12/27 08:26:36;;;;;;;238.05;67.45;;;5.00;99.90;;;;;;4958299;28;20042;-83
2021/12/27 08:29:05;;;;;;;437.30;90.00;;;5.10;99.90;;;;;;4958577;28;20030;-83
2021/12/27 08:31:31;;;;;;;300.95;77.97;;;5.00;99.90;;;;;;4941703;28;20560;-83
2021/12/27 08:33:57;;;;;;;183.10;55.15;;;5.00;99.90;;;;;;4942109;28;20130;-83
2021/12/27 08:36:22;;;;;;;160.63;48.05;;;5.00;99.90;;;;;;4975768;28;20038;-83
2021/12/27 08:39:34;;;;;;;182.23;53.22;;;5.10;99.90;;;;;;4974685;28;20081;-83
2021/12/27 08:42:01;;;;;;;;;;;5.20;99.90;;;;;;4974617;28;20126;-83
2021/12/27 08:44:32;;;;;;;344.67;124.28;;;5.20;99.90;;;;;;4975088;28;19957;-83
2021/12/27 08:47:08;;;;;;;278.30;102.22;;;5.20;99.90;;;;;;4942070;28;20082;-83
2021/12/27 08:49:34;;;;;;;213.18;70.22;;;5.30;99.90;;;;;;4975360;28;20034;-83
2021/12/27 08:51:59;;;;;;;156.52;53.25;;;5.30;99.90;;;;;;4957625;28;20070;-83
2021/12/27 08:54:25;;;;;;;166.07;54.28;;;5.30;99.90;;;;;;4941339;28;20027;-83
2021/12/27 08:56:51;;;;;;;125.20;42.95;;;5.20;99.90;;;;;;4974810;28;20039;-83
2021/12/27 08:59:16;;;;;;;114.72;36.85;;;5.10;99.90;;;;;;4957420;28;20630;-82
2021/12/27 09:01:42;;;;;;;150.40;55.67;;;5.10;99.90;;;;;;4974499;28;20057;-83
2021/12/27 09:04:09;;;;;;;101.22;39.30;;;5.20;99.90;;;;;;4941027;28;20027;-83
2021/12/27 09:06:35;;;;;;;132.63;51.20;;;5.20;99.90;;;;;;4973465;28;20549;-83
2021/12/27 09:09:04;;;;;;;243.60;91.25;;;5.30;99.90;;;;;;4941561;28;20031;-83
2021/12/27 09:11:30;;;;;;;156.07;69.07;;;5.30;99.90;;;;;;4975250;28;20518;-83
2021/12/27 09:14:05;;;;;;;220.18;98.60;;;5.40;99.90;;;;;;4941303;28;20094;-82
2021/12/27 09:16:31;;;;;;;241.65;104.30;;;5.40;99.90;;;;;;4957617;28;20117;-83
2021/12/27 09:18:56;;;;;;;232.30;96.65;;;5.40;99.90;;;;;;4941982;28;20487;-83
2021/12/27 09:21:22;;;;;;;230.40;100.85;;;5.50;99.90;;;;;;4941553;28;20073;-82
2021/12/27 09:23:48;;;;;;;351.08;158.00;;;5.50;99.90;;;;;;4974457;28;20070;-82
2021/12/27 09:26:13;;;;;;;241.18;106.13;;;5.60;99.90;;;;;;4941440;28;20478;-83
2021/12/27 09:28:39;;;;;;;175.98;71.63;;;5.60;99.90;;;;;;4974661;28;20035;-83
2021/12/27 09:31:05;;;;;;;137.90;58.03;;;5.70;99.90;;;;;;4954784;28;20034;-83
2021/12/27 09:33:30;;;;;;;210.23;80.40;;;5.80;99.90;;;;;;4976128;28;20085;-83
2021/12/27 09:35:57;;;;;;;123.88;58.80;;;5.70;99.90;;;;;;4960626;28;20512;-82
2021/12/27 09:38:29;;;;;;;139.30;67.88;;;5.70;99.90;;;;;;4976569;28;20161;-82
2021/12/27 09:41:14;;;;;;;89.95;40.72;;;5.70;99.90;;;;;;4976497;28;20034;-83
2021/12/27 09:43:40;;;;;;;72.00;36.60;;;5.80;99.90;;;;;;4976383;28;20045;-83
2021/12/27 09:46:06;;;;;;;86.80;40.00;;;6.00;99.90;;;;;;4993810;28;20034;-83
2021/12/27 09:48:34;;;;;;;81.82;35.53;;;6.30;99.90;;;;;;4992778;28;20022;-83
2021/12/27 09:51:01;;;;;;;83.40;37.22;;;6.40;99.90;;;;;;4976486;28;20040;-83
2021/12/27 09:53:26;;;;;;;48.65;25.50;;;6.30;99.90;;;;;;4992315;28;20030;-83
2021/12/27 09:55:52;;;;;;;37.25;21.73;;;6.10;99.90;;;;;;4976238;28;20549;-83
2021/12/27 09:58:19;;;;;;;44.60;23.75;;;6.00;99.90;;;;;;4976314;28;20031;-83
2021/12/27 10:00:45;;;;;;;45.17;23.88;;;5.90;99.90;;;;;;4959855;28;20030;-83
2021/12/27 10:03:12;;;;;;;36.78;19.30;;;5.90;99.90;;;;;;4993594;28;20038;-83
2021/12/27 10:05:38;;;;;;;42.40;21.75;;;6.00;99.90;;;;;;4976172;28;20080;-83
2021/12/27 10:08:04;;;;;;;34.50;20.13;;;6.10;99.90;;;;;;4992443;28;20441;-83
2021/12/27 10:10:36;;;;;;;43.05;19.90;;;6.10;99.90;;;;;;4993455;28;20031;-84
2021/12/27 10:13:09;;;;;;;40.75;20.92;;;6.10;99.90;;;;;;4976068;28;20081;-82
2021/12/27 10:15:38;;;;;;;37.55;19.38;;;6.10;99.90;;;;;;4996573;28;20026;-82
2021/12/27 10:18:23;;;;;;;38.90;20.08;;;6.00;99.90;;;;;;4996027;28;20061;-82
2021/12/27 10:20:49;;;;;;;42.15;20.75;;;5.90;99.90;;;;;;4980113;28;20487;-82
2021/12/27 10:23:19;;;;;;;47.15;23.40;;;5.90;99.90;;;;;;4979776;28;20030;-83
2021/12/27 10:25:49;;;;;;;35.60;19.10;;;6.00;99.90;;;;;;4963559;28;20088;-83
2021/12/27 10:28:15;;;;;;;40.65;19.98;;;6.00;99.90;;;;;;4979887;28;20034;-83
2021/12/27 10:30:45;;;;;;;44.60;24.88;;;6.10;99.90;;;;;;4964006;28;20662;-83
2021/12/27 10:33:24;;;;;;;36.60;21.25;;;6.20;99.90;;;;;;4997525;28;20393;-83
2021/12/27 10:35:56;;;;;;;51.40;25.45;;;6.40;99.90;;;;;;4980165;28;20114;-82
2021/12/27 10:38:28;;;;;;;39.05;20.42;;;6.70;99.90;;;;;;4979804;28;20030;-83
2021/12/27 10:41:01;;;;;;;;;;;6.70;99.90;;;;;;4980042;28;20034;-83
2021/12/27 10:43:38;;;;;;;36.67;17.10;;;6.50;99.90;;;;;;4980769;28;20065;-84
2021/12/27 10:46:15;;;;;;;44.08;20.20;;;6.20;99.90;;;;;;4995805;28;20042;-83
2021/12/27 10:48:45;;;;;;;45.85;21.98;;;6.10;99.90;;;;;;4979543;28;20074;-83
2021/12/27 10:51:12;;;;;;;35.85;19.63;;;6.10;99.90;;;;;;4979546;28;20042;-82
2021/12/27 10:53:50;;;;;;;30.85;17.40;;;6.40;99.90;;;;;;4979253;28;20109;-83
2021/12/27 10:56:18;;;;;;;26.23;14.88;;;6.50;99.90;;;;;;4995545;28;20508;-83
2021/12/27 10:58:49;;;;;;;22.63;14.38;;;6.60;99.90;;;;;;4979338;28;20437;-83
2021/12/27 11:01:19;;;;;;;24.23;14.48;;;6.50;99.90;;;;;;4963282;28;20038;-83
2021/12/27 11:03:47;;;;;;;21.10;12.88;;;6.40;99.90;;;;;;4963174;28;20069;-83
2021/12/27 11:06:17;;;;;;;38.03;19.25;;;6.60;99.90;;;;;;4996640;28;20034;-83
2021/12/27 11:08:44;;;;;;;71.82;27.58;;;6.70;99.90;;;;;;4979376;28;20500;-83
2021/12/27 11:11:11;;;;;;;51.70;23.63;;;6.60;99.90;;;;;;4977335;28;20045;-83
2021/12/27 11:13:41;;;;;;;67.50;33.55;;;6.70;99.90;;;;;;4996191;28;20034;-82
2021/12/27 11:16:07;;;;;;;39.58;21.63;;;6.60;99.90;;;;;;4962978;28;20174;-83
2021/12/27 11:18:34;;;;;;;55.92;25.55;;;6.50;99.90;;;;;;4996361;28;20037;-83
2021/12/27 11:21:08;;;;;;;29.77;16.10;;;6.40;99.90;;;;;;4994991;28;20042;-83
2021/12/27 11:23:41;;;;;;;27.75;16.92;;;6.30;99.90;;;;;;4978435;28;20034;-83
2021/12/27 11:26:20;;;;;;;28.85;15.60;;;6.30;99.90;;;;;;4994609;28;20074;-83
2021/12/27 11:28:46;;;;;;;23.27;14.02;;;6.40;99.90;;;;;;4962405;28;20034;-83
2021/12/27 11:31:23;;;;;;;26.90;16.48;;;6.40;99.90;;;;;;4978641;28;20050;-83
2021/12/27 11:34:00;;;;;;;50.15;26.38;;;6.50;99.90;;;;;;4978297;28;20081;-83
2021/12/27 11:36:32;;;;;;;25.55;15.98;;;6.80;99.90;;;;;;4980559;28;20061;-83
2021/12/27 11:38:59;;;;;;;20.48;13.43;;;6.90;99.90;;;;;;4980474;28;20042;-83
2021/12/27 11:41:31;;;;;;;21.55;13.45;;;6.70;99.90;;;;;;4978538;28;20065;-83
2021/12/27 11:43:58;;;;;;;22.30;14.10;;;6.80;99.90;;;;;;4994189;28;20069;-83
2021/12/27 11:46:27;;;;;;;24.08;16.00;;;6.80;99.90;;;;;;4962244;28;20046;-82
2021/12/27 11:48:55;;;;;;;25.50;13.43;;;6.70;99.90;;;;;;4978102;28;20081;-83
2021/12/27 11:51:36;;;;;;;26.48;15.13;;;6.70;99.90;;;;;;4994272;28;20042;-83
2021/12/27 11:54:25;;;;;;;27.08;16.65;;;6.70;99.90;;;;;;4980099;28;20040;-83
2021/12/27 11:56:51;;;;;;;34.25;18.15;;;6.80;99.90;;;;;;4980188;28;20089;-82
2021/12/27 11:59:25;;;;;;;23.88;15.63;;;6.90;99.90;;;;;;4977851;28;20035;-82
2021/12/27 12:02:00;;;;;;;24.02;14.88;;;6.80;99.90;;;;;;4995546;28;20439;-83
2021/12/27 12:04:48;;;;;;;26.90;14.98;;;6.70;99.90;;;;;;4977562;28;20040;-83
2021/12/27 12:07:34;;;;;;;35.65;17.25;;;6.70;99.90;;;;;;4995230;28;20077;-83
2021/12/27 12:10:03;;;;;;;25.75;14.52;;;6.50;99.90;;;;;;4958101;28;20190;-83
2021/12/27 12:12:28;;;;;;;22.30;14.07;;;6.50;99.90;;;;;;4961810;28;20038;-83
2021/12/27 12:14:57;;;;;;;21.33;14.85;;;6.50;99.90;;;;;;4961512;28;20031;-82
2021/12/27 12:17:44;;;;;;;25.63;16.20;;;6.50;99.90;;;;;;4977732;28;20042;-83
2021/12/27 12:20:28;;;;;;;30.83;15.63;;;6.60;99.90;;;;;;4977733;28;20037;-83
2021/12/27 12:23:04;;;;;;;29.25;15.20;;;6.70;99.90;;;;;;4995217;28;20030;-83
2021/12/27 12:25:30;;;;;;;23.95;15.20;;;6.70;99.90;;;;;;4977587;28;20030;-83
2021/12/27 12:28:02;;;;;;;26.58;15.00;;;6.70;99.90;;;;;;4979628;28;20541;-83
2021/12/27 12:30:34;;;;;;;23.67;15.52;;;6.60;99.90;;;;;;4961376;28;20084;-83
2021/12/27 12:33:21;;;;;;;25.85;14.85;;;6.60;99.90;;;;;;4977753;28;20045;-84
2021/12/27 12:35:57;;;;;;;30.20;16.65;;;6.60;99.90;;;;;;4977617;28;20057;-83
2021/12/27 12:38:32;;;;;;;26.55;16.00;;;6.60;99.90;;;;;;4992906;28;20034;-83
2021/12/27 12:41:18;;;;;;;26.75;15.85;;;6.50;99.90;;;;;;4961279;28;20031;-83